sensor_id;sensor_type;location;lat;lon;timestamp;P1;durP1;ratioP1;P2;durP2;ratioP2
52041;SDS011;38052;45.944;13.624;2023-04-01T00:00:19;0.95;;;0.20;;
52041;SDS011;38052;45.944;13.624;2023-04-01T00:02:45;0.55;;;0.20;;
52041;SDS011;38052;45.944;13.624;2023-04-01T00:05:12;1.20;;;0.10;;
52041;SDS011;38052;45.944;13.624;2023-04-01T00:07:39;0.40;;;0.13;;
52041;SDS011;38052;45.944;13.624;2023-04-01T00:10:06;0.40;;;0.10;;
52041;SDS011;38052;45.944;13.624;2023-04-01T00:12:32;0.70;;;0.10;;
52041;SDS011;38052;45.944;13.624;2023-04-01T00:14:59;1.17;;;0.30;;
52041;SDS011;38052;45.944;13.624;2023-04-01T00:17:26;2.50;;;0.30;;
52041;SDS011;38052;45.944;13.624;2023-04-01T00:19:54;0.95;;;0.20;;
52041;SDS011;38052;45.944;13.624;2023-04-01T00:22:20;1.95;;;0.65;;
52041;SDS011;38052;45.944;13.624;2023-04-01T00:24:47;1.50;;;0.30;;
52041;SDS011;38052;45.944;13.624;2023-04-01T00:27:13;0.77;;;0.30;;
52041;SDS011;38052;45.944;13.624;2023-04-01T00:29:43;0.80;;;0.25;;
52041;SDS011;38052;45.944;13.624;2023-04-01T00:32:09;0.50;;;0.22;;
52041;SDS011;38052;45.944;13.624;2023-04-01T00:34:35;4.72;;;0.70;;
52041;SDS011;38052;45.944;13.624;2023-04-01T00:37:02;0.93;;;0.30;;
52041;SDS011;38052;45.944;13.624;2023-04-01T00:39:28;1.17;;;0.30;;
52041;SDS011;38052;45.944;13.624;2023-04-01T00:41:55;0.17;;;0.03;;
52041;SDS011;38052;45.944;13.624;2023-04-01T00:44:25;1.60;;;0.38;;
52041;SDS011;38052;45.944;13.624;2023-04-01T00:46:52;1.08;;;0.20;;
52041;SDS011;38052;45.944;13.624;2023-04-01T00:49:20;0.55;;;0.20;;
52041;SDS011;38052;45.944;13.624;2023-04-01T00:51:48;0.75;;;0.30;;
52041;SDS011;38052;45.944;13.624;2023-04-01T00:54:16;0.93;;;0.30;;
52041;SDS011;38052;45.944;13.624;2023-04-01T00:56:45;1.08;;;0.38;;
52041;SDS011;38052;45.944;13.624;2023-04-01T00:59:16;2.80;;;0.55;;
52041;SDS011;38052;45.944;13.624;2023-04-01T01:01:44;0.88;;;0.38;;
52041;SDS011;38052;45.944;13.624;2023-04-01T01:07:12;1.20;;;0.50;;
52041;SDS011;38052;45.944;13.624;2023-04-01T01:25:07;0.80;;;0.45;;
52041;SDS011;38052;45.944;13.624;2023-04-01T01:27:36;1.10;;;0.35;;
52041;SDS011;38052;45.944;13.624;2023-04-01T01:35:19;3.00;;;0.50;;
52041;SDS011;38052;45.944;13.624;2023-04-01T01:37:47;3.15;;;0.38;;
52041;SDS011;38052;45.944;13.624;2023-04-01T01:40:15;1.55;;;0.50;;
52041;SDS011;38052;45.944;13.624;2023-04-01T01:42:46;1.90;;;0.45;;
52041;SDS011;38052;45.944;13.624;2023-04-01T01:45:14;0.68;;;0.30;;
52041;SDS011;38052;45.944;13.624;2023-04-01T01:47:43;0.73;;;0.40;;
52041;SDS011;38052;45.944;13.624;2023-04-01T01:50:10;5.18;;;0.52;;
52041;SDS011;38052;45.944;13.624;2023-04-01T01:52:36;0.88;;;0.43;;
52041;SDS011;38052;45.944;13.624;2023-04-01T01:55:02;1.30;;;0.40;;
52041;SDS011;38052;45.944;13.624;2023-04-01T01:57:31;2.15;;;0.60;;
52041;SDS011;38052;45.944;13.624;2023-04-01T02:00:06;1.50;;;0.30;;
52041;SDS011;38052;45.944;13.624;2023-04-01T02:02:41;1.63;;;0.40;;
52041;SDS011;38052;45.944;13.624;2023-04-01T02:05:10;2.10;;;0.25;;
52041;SDS011;38052;45.944;13.624;2023-04-01T02:07:37;1.05;;;0.40;;
52041;SDS011;38052;45.944;13.624;2023-04-01T02:10:06;1.38;;;0.38;;
52041;SDS011;38052;45.944;13.624;2023-04-01T02:12:32;1.58;;;0.25;;
52041;SDS011;38052;45.944;13.624;2023-04-01T02:17:25;1.95;;;0.32;;
52041;SDS011;38052;45.944;13.624;2023-04-01T02:19:59;1.88;;;0.22;;
52041;SDS011;38052;45.944;13.624;2023-04-01T02:22:46;2.90;;;0.20;;
52041;SDS011;38052;45.944;13.624;2023-04-01T02:25:14;0.73;;;0.22;;
52041;SDS011;38052;45.944;13.624;2023-04-01T02:27:43;3.50;;;0.60;;
52041;SDS011;38052;45.944;13.624;2023-04-01T02:30:09;1.70;;;0.40;;
52041;SDS011;38052;45.944;13.624;2023-04-01T02:32:36;0.85;;;0.17;;
52041;SDS011;38052;45.944;13.624;2023-04-01T02:35:09;0.63;;;0.10;;
52041;SDS011;38052;45.944;13.624;2023-04-01T02:37:37;1.40;;;0.80;;
52041;SDS011;38052;45.944;13.624;2023-04-01T02:40:05;2.45;;;0.30;;
52041;SDS011;38052;45.944;13.624;2023-04-01T02:42:32;0.38;;;0.10;;
52041;SDS011;38052;45.944;13.624;2023-04-01T02:44:58;5.72;;;0.30;;
52041;SDS011;38052;45.944;13.624;2023-04-01T02:47:25;3.58;;;0.40;;
52041;SDS011;38052;45.944;13.624;2023-04-01T02:49:51;1.17;;;0.10;;
52041;SDS011;38052;45.944;13.624;2023-04-01T02:54:49;0.98;;;0.28;;
52041;SDS011;38052;45.944;13.624;2023-04-01T02:57:15;0.38;;;0.10;;
52041;SDS011;38052;45.944;13.624;2023-04-01T02:59:42;0.80;;;0.20;;
52041;SDS011;38052;45.944;13.624;2023-04-01T03:02:08;1.08;;;0.55;;
52041;SDS011;38052;45.944;13.624;2023-04-01T03:04:35;0.98;;;0.10;;
52041;SDS011;38052;45.944;13.624;2023-04-01T03:07:01;2.83;;;0.20;;
52041;SDS011;38052;45.944;13.624;2023-04-01T03:09:27;0.52;;;0.20;;
52041;SDS011;38052;45.944;13.624;2023-04-01T03:11:54;2.70;;;0.20;;
52041;SDS011;38052;45.944;13.624;2023-04-01T03:14:20;0.25;;;0.15;;
52041;SDS011;38052;45.944;13.624;2023-04-01T03:16:47;0.52;;;0.10;;
52041;SDS011;38052;45.944;13.624;2023-04-01T03:19:14;0.32;;;0.10;;
52041;SDS011;38052;45.944;13.624;2023-04-01T03:21:40;0.30;;;0.10;;
52041;SDS011;38052;45.944;13.624;2023-04-01T03:24:06;1.42;;;0.10;;
52041;SDS011;38052;45.944;13.624;2023-04-01T03:26:33;1.45;;;0.20;;
52041;SDS011;38052;45.944;13.624;2023-04-01T03:29:00;0.15;;;0.08;;
52041;SDS011;38052;45.944;13.624;2023-04-01T03:31:27;0.90;;;0.10;;
52041;SDS011;38052;45.944;13.624;2023-04-01T03:33:53;1.35;;;0.20;;
52041;SDS011;38052;45.944;13.624;2023-04-01T03:36:20;1.45;;;0.10;;
52041;SDS011;38052;45.944;13.624;2023-04-01T03:38:46;0.82;;;0.20;;
52041;SDS011;38052;45.944;13.624;2023-04-01T03:41:13;2.08;;;0.20;;
52041;SDS011;38052;45.944;13.624;2023-04-01T03:43:39;1.85;;;0.30;;
52041;SDS011;38052;45.944;13.624;2023-04-01T03:46:06;3.58;;;0.80;;
52041;SDS011;38052;45.944;13.624;2023-04-01T03:48:32;3.90;;;0.60;;
52041;SDS011;38052;45.944;13.624;2023-04-01T03:50:59;2.83;;;0.90;;
52041;SDS011;38052;45.944;13.624;2023-04-01T03:53:26;3.35;;;0.60;;
52041;SDS011;38052;45.944;13.624;2023-04-01T03:55:53;11.10;;;1.58;;
52041;SDS011;38052;45.944;13.624;2023-04-01T03:58:19;4.13;;;1.15;;
52041;SDS011;38052;45.944;13.624;2023-04-01T04:00:45;2.50;;;0.70;;
52041;SDS011;38052;45.944;13.624;2023-04-01T04:03:12;3.50;;;0.68;;
52041;SDS011;38052;45.944;13.624;2023-04-01T04:05:40;1.67;;;0.40;;
52041;SDS011;38052;45.944;13.624;2023-04-01T04:08:11;4.70;;;1.27;;
52041;SDS011;38052;45.944;13.624;2023-04-01T04:10:37;4.95;;;0.68;;
52041;SDS011;38052;45.944;13.624;2023-04-01T04:13:04;2.65;;;1.08;;
52041;SDS011;38052;45.944;13.624;2023-04-01T04:15:31;2.00;;;0.40;;
52041;SDS011;38052;45.944;13.624;2023-04-01T04:17:57;2.58;;;0.75;;
52041;SDS011;38052;45.944;13.624;2023-04-01T04:20:24;3.92;;;1.05;;
52041;SDS011;38052;45.944;13.624;2023-04-01T04:22:50;3.63;;;0.68;;
52041;SDS011;38052;45.944;13.624;2023-04-01T04:25:17;4.55;;;1.70;;
52041;SDS011;38052;45.944;13.624;2023-04-01T04:27:43;3.67;;;1.73;;
52041;SDS011;38052;45.944;13.624;2023-04-01T04:30:10;3.45;;;1.30;;
52041;SDS011;38052;45.944;13.624;2023-04-01T04:32:36;3.58;;;1.30;;
52041;SDS011;38052;45.944;13.624;2023-04-01T04:35:02;3.00;;;0.98;;
52041;SDS011;38052;45.944;13.624;2023-04-01T04:37:28;2.80;;;0.52;;
52041;SDS011;38052;45.944;13.624;2023-04-01T04:39:55;2.90;;;0.60;;
52041;SDS011;38052;45.944;13.624;2023-04-01T04:42:21;3.65;;;0.73;;
52041;SDS011;38052;45.944;13.624;2023-04-01T04:44:48;1.98;;;0.50;;
52041;SDS011;38052;45.944;13.624;2023-04-01T04:47:14;2.03;;;0.73;;
52041;SDS011;38052;45.944;13.624;2023-04-01T04:49:41;3.35;;;0.85;;
52041;SDS011;38052;45.944;13.624;2023-04-01T04:52:07;2.88;;;0.70;;
52041;SDS011;38052;45.944;13.624;2023-04-01T04:54:33;1.92;;;0.80;;
52041;SDS011;38052;45.944;13.624;2023-04-01T04:57:00;2.10;;;0.93;;
52041;SDS011;38052;45.944;13.624;2023-04-01T04:59:27;2.03;;;0.75;;
52041;SDS011;38052;45.944;13.624;2023-04-01T05:01:53;1.60;;;0.82;;
52041;SDS011;38052;45.944;13.624;2023-04-01T05:04:20;3.15;;;1.10;;
52041;SDS011;38052;45.944;13.624;2023-04-01T05:06:46;3.10;;;0.98;;
52041;SDS011;38052;45.944;13.624;2023-04-01T05:09:13;1.35;;;0.30;;
52041;SDS011;38052;45.944;13.624;2023-04-01T05:11:39;1.42;;;0.50;;
52041;SDS011;38052;45.944;13.624;2023-04-01T05:14:06;2.80;;;0.80;;
52041;SDS011;38052;45.944;13.624;2023-04-01T05:16:32;3.38;;;0.30;;
52041;SDS011;38052;45.944;13.624;2023-04-01T05:18:59;2.38;;;0.63;;
52041;SDS011;38052;45.944;13.624;2023-04-01T05:21:25;2.15;;;0.63;;
52041;SDS011;38052;45.944;13.624;2023-04-01T05:23:51;2.10;;;1.33;;
52041;SDS011;38052;45.944;13.624;2023-04-01T05:26:18;5.13;;;1.92;;
52041;SDS011;38052;45.944;13.624;2023-04-01T05:28:45;3.58;;;2.00;;
52041;SDS011;38052;45.944;13.624;2023-04-01T05:31:11;2.55;;;1.27;;
52041;SDS011;38052;45.944;13.624;2023-04-01T05:33:37;2.35;;;1.20;;
52041;SDS011;38052;45.944;13.624;2023-04-01T05:36:10;3.50;;;1.98;;
52041;SDS011;38052;45.944;13.624;2023-04-01T05:38:37;3.85;;;1.25;;
52041;SDS011;38052;45.944;13.624;2023-04-01T05:41:03;4.00;;;1.00;;
52041;SDS011;38052;45.944;13.624;2023-04-01T05:43:29;1.45;;;0.65;;
52041;SDS011;38052;45.944;13.624;2023-04-01T05:45:55;1.42;;;0.40;;
52041;SDS011;38052;45.944;13.624;2023-04-01T05:48:21;6.75;;;1.23;;
52041;SDS011;38052;45.944;13.624;2023-04-01T05:50:48;1.23;;;0.55;;
52041;SDS011;38052;45.944;13.624;2023-04-01T05:53:15;1.38;;;0.38;;
52041;SDS011;38052;45.944;13.624;2023-04-01T05:55:41;1.10;;;0.30;;
52041;SDS011;38052;45.944;13.624;2023-04-01T05:58:08;1.40;;;0.30;;
52041;SDS011;38052;45.944;13.624;2023-04-01T06:00:35;1.00;;;0.30;;
52041;SDS011;38052;45.944;13.624;2023-04-01T06:03:01;2.60;;;0.73;;
52041;SDS011;38052;45.944;13.624;2023-04-01T06:05:28;1.80;;;0.77;;
52041;SDS011;38052;45.944;13.624;2023-04-01T06:07:58;1.75;;;0.65;;
52041;SDS011;38052;45.944;13.624;2023-04-01T06:10:31;3.92;;;0.75;;
52041;SDS011;38052;45.944;13.624;2023-04-01T06:15:32;7.00;;;0.70;;
52041;SDS011;38052;45.944;13.624;2023-04-01T06:20:52;2.40;;;0.50;;
52041;SDS011;38052;45.944;13.624;2023-04-01T06:23:32;1.27;;;0.70;;
52041;SDS011;38052;45.944;13.624;2023-04-01T06:33:52;2.92;;;0.40;;
52041;SDS011;38052;45.944;13.624;2023-04-01T06:44:20;4.07;;;0.98;;
52041;SDS011;38052;45.944;13.624;2023-04-01T06:54:40;3.92;;;0.63;;
52041;SDS011;38052;45.944;13.624;2023-04-01T06:57:15;3.63;;;0.60;;
52041;SDS011;38052;45.944;13.624;2023-04-01T06:59:44;1.20;;;0.50;;
52041;SDS011;38052;45.944;13.624;2023-04-01T07:04:43;2.67;;;0.63;;
52041;SDS011;38052;45.944;13.624;2023-04-01T07:09:38;2.88;;;0.40;;
52041;SDS011;38052;45.944;13.624;2023-04-01T07:12:09;2.85;;;0.63;;
52041;SDS011;38052;45.944;13.624;2023-04-01T07:14:37;1.13;;;0.25;;
52041;SDS011;38052;45.944;13.624;2023-04-01T07:17:11;1.30;;;0.60;;
52041;SDS011;38052;45.944;13.624;2023-04-01T07:19:48;1.30;;;0.32;;
52041;SDS011;38052;45.944;13.624;2023-04-01T07:24:44;1.23;;;0.55;;
52041;SDS011;38052;45.944;13.624;2023-04-01T07:27:12;2.65;;;1.15;;
52041;SDS011;38052;45.944;13.624;2023-04-01T07:29:39;2.78;;;0.38;;
52041;SDS011;38052;45.944;13.624;2023-04-01T07:37:27;2.67;;;0.57;;
52041;SDS011;38052;45.944;13.624;2023-04-01T07:47:45;0.98;;;0.30;;
52041;SDS011;38052;45.944;13.624;2023-04-01T07:58:31;2.05;;;0.80;;
52041;SDS011;38052;45.944;13.624;2023-04-01T08:01:09;2.78;;;0.70;;
52041;SDS011;38052;45.944;13.624;2023-04-01T08:19:15;0.88;;;0.25;;
52041;SDS011;38052;45.944;13.624;2023-04-01T08:21:45;3.70;;;0.35;;
52041;SDS011;38052;45.944;13.624;2023-04-01T08:26:58;2.67;;;0.80;;
52041;SDS011;38052;45.944;13.624;2023-04-01T08:29:42;3.95;;;0.63;;
52041;SDS011;38052;45.944;13.624;2023-04-01T08:32:12;4.13;;;0.50;;
52041;SDS011;38052;45.944;13.624;2023-04-01T08:34:43;0.80;;;0.30;;
52041;SDS011;38052;45.944;13.624;2023-04-01T08:37:17;1.33;;;0.30;;
52041;SDS011;38052;45.944;13.624;2023-04-01T08:39:45;3.78;;;0.38;;
52041;SDS011;38052;45.944;13.624;2023-04-01T08:47:50;1.55;;;0.40;;
52041;SDS011;38052;45.944;13.624;2023-04-01T09:00:46;0.73;;;0.30;;
52041;SDS011;38052;45.944;13.624;2023-04-01T09:06:12;0.80;;;0.22;;
52041;SDS011;38052;45.944;13.624;2023-04-01T09:08:58;1.08;;;0.10;;
52041;SDS011;38052;45.944;13.624;2023-04-01T09:14:22;0.63;;;0.20;;
52041;SDS011;38052;45.944;13.624;2023-04-01T09:22:17;1.45;;;0.50;;
52041;SDS011;38052;45.944;13.624;2023-04-01T09:25:01;0.57;;;0.30;;
52041;SDS011;38052;45.944;13.624;2023-04-01T09:35:42;1.60;;;0.30;;
52041;SDS011;38052;45.944;13.624;2023-04-01T10:38:26;0.88;;;0.10;;
52041;SDS011;38052;45.944;13.624;2023-04-01T11:15:40;0.60;;;0.10;;
52041;SDS011;38052;45.944;13.624;2023-04-01T11:23:37;0.45;;;0.15;;
52041;SDS011;38052;45.944;13.624;2023-04-01T11:26:16;0.45;;;0.20;;
52041;SDS011;38052;45.944;13.624;2023-04-01T11:36:58;0.20;;;0.10;;
52041;SDS011;38052;45.944;13.624;2023-04-01T11:42:00;0.55;;;0.20;;
52041;SDS011;38052;45.944;13.624;2023-04-01T11:44:29;0.90;;;0.30;;
52041;SDS011;38052;45.944;13.624;2023-04-01T11:47:42;3.20;;;0.65;;
52041;SDS011;38052;45.944;13.624;2023-04-01T11:55:38;2.58;;;0.20;;
52041;SDS011;38052;45.944;13.624;2023-04-01T12:23:44;0.50;;;0.20;;
52041;SDS011;38052;45.944;13.624;2023-04-01T12:26:27;1.45;;;0.20;;
52041;SDS011;38052;45.944;13.624;2023-04-01T12:29:03;1.48;;;0.10;;
52041;SDS011;38052;45.944;13.624;2023-04-01T12:31:39;0.32;;;0.10;;
52041;SDS011;38052;45.944;13.624;2023-04-01T12:34:21;1.67;;;0.10;;
52041;SDS011;38052;45.944;13.624;2023-04-01T12:47:06;0.30;;;0.20;;
52041;SDS011;38052;45.944;13.624;2023-04-01T12:55:04;1.15;;;0.20;;
52041;SDS011;38052;45.944;13.624;2023-04-01T13:16:32;0.20;;;0.10;;
52041;SDS011;38052;45.944;13.624;2023-04-01T13:21:27;0.82;;;0.10;;
52041;SDS011;38052;45.944;13.624;2023-04-01T13:29:11;0.10;;;0.08;;
52041;SDS011;38052;45.944;13.624;2023-04-01T13:42:23;1.50;;;0.20;;
52041;SDS011;38052;45.944;13.624;2023-04-01T14:13:28;2.53;;;0.50;;
52041;SDS011;38052;45.944;13.624;2023-04-01T14:21:35;2.75;;;0.40;;
52041;SDS011;38052;45.944;13.624;2023-04-01T14:24:23;1.55;;;0.30;;
52041;SDS011;38052;45.944;13.624;2023-04-01T14:32:18;3.03;;;0.30;;
52041;SDS011;38052;45.944;13.624;2023-04-01T14:50:24;1.55;;;0.60;;
52041;SDS011;38052;45.944;13.624;2023-04-01T14:52:59;1.42;;;0.40;;
52041;SDS011;38052;45.944;13.624;2023-04-01T14:55:28;3.78;;;0.65;;
52041;SDS011;38052;45.944;13.624;2023-04-01T14:58:04;2.13;;;0.50;;
52041;SDS011;38052;45.944;13.624;2023-04-01T15:05:49;3.95;;;0.60;;
52041;SDS011;38052;45.944;13.624;2023-04-01T15:21:43;3.03;;;0.80;;
52041;SDS011;38052;45.944;13.624;2023-04-01T15:24:14;3.15;;;0.57;;
52041;SDS011;38052;45.944;13.624;2023-04-01T15:26:49;3.85;;;0.80;;
52041;SDS011;38052;45.944;13.624;2023-04-01T15:32:02;3.15;;;1.40;;
52041;SDS011;38052;45.944;13.624;2023-04-01T15:37:04;4.38;;;1.20;;
52041;SDS011;38052;45.944;13.624;2023-04-01T15:45:03;3.85;;;1.10;;
52041;SDS011;38052;45.944;13.624;2023-04-01T15:47:38;3.67;;;1.45;;
52041;SDS011;38052;45.944;13.624;2023-04-01T15:55:43;5.47;;;1.13;;
52041;SDS011;38052;45.944;13.624;2023-04-01T15:58:28;6.35;;;1.58;;
52041;SDS011;38052;45.944;13.624;2023-04-01T16:03:44;3.13;;;1.10;;
52041;SDS011;38052;45.944;13.624;2023-04-01T16:18:49;5.07;;;2.28;;
52041;SDS011;38052;45.944;13.624;2023-04-01T16:23:49;9.80;;;2.85;;
52041;SDS011;38052;45.944;13.624;2023-04-01T16:26:35;4.88;;;2.15;;
52041;SDS011;38052;45.944;13.624;2023-04-01T16:29:06;5.53;;;2.05;;
52041;SDS011;38052;45.944;13.624;2023-04-01T16:31:38;8.05;;;3.17;;
52041;SDS011;38052;45.944;13.624;2023-04-01T16:34:27;10.88;;;3.17;;
52041;SDS011;38052;45.944;13.624;2023-04-01T16:44:26;11.65;;;3.15;;
52041;SDS011;38052;45.944;13.624;2023-04-01T16:46:56;7.97;;;3.15;;
52041;SDS011;38052;45.944;13.624;2023-04-01T16:56:54;9.57;;;3.67;;
52041;SDS011;38052;45.944;13.624;2023-04-01T16:59:23;12.05;;;4.40;;
52041;SDS011;38052;45.944;13.624;2023-04-01T17:07:22;8.40;;;2.88;;
52041;SDS011;38052;45.944;13.624;2023-04-01T17:09:55;9.87;;;3.77;;
52041;SDS011;38052;45.944;13.624;2023-04-01T17:14:59;11.38;;;4.30;;
52041;SDS011;38052;45.944;13.624;2023-04-01T17:17:34;9.88;;;5.65;;
52041;SDS011;38052;45.944;13.624;2023-04-01T17:20:18;10.32;;;4.35;;
52041;SDS011;38052;45.944;13.624;2023-04-01T17:45:42;8.70;;;5.10;;
52041;SDS011;38052;45.944;13.624;2023-04-01T17:58:33;12.73;;;6.78;;
52041;SDS011;38052;45.944;13.624;2023-04-01T18:06:45;13.88;;;8.68;;
52041;SDS011;38052;45.944;13.624;2023-04-01T18:09:18;18.65;;;10.82;;
52041;SDS011;38052;45.944;13.624;2023-04-01T18:12:05;18.85;;;9.65;;
52041;SDS011;38052;45.944;13.624;2023-04-01T18:22:15;14.63;;;7.20;;
52041;SDS011;38052;45.944;13.624;2023-04-01T18:24:44;11.65;;;8.30;;
52041;SDS011;38052;45.944;13.624;2023-04-01T18:27:19;14.07;;;9.18;;
52041;SDS011;38052;45.944;13.624;2023-04-01T18:29:53;20.33;;;10.20;;
52041;SDS011;38052;45.944;13.624;2023-04-01T18:32:36;17.38;;;11.25;;
52041;SDS011;38052;45.944;13.624;2023-04-01T18:35:50;17.48;;;10.45;;
52041;SDS011;38052;45.944;13.624;2023-04-01T18:38:16;23.00;;;10.38;;
52041;SDS011;38052;45.944;13.624;2023-04-01T18:40:42;25.67;;;13.77;;
52041;SDS011;38052;45.944;13.624;2023-04-01T18:46:03;14.10;;;9.80;;
52041;SDS011;38052;45.944;13.624;2023-04-01T18:51:46;13.35;;;8.93;;
52041;SDS011;38052;45.944;13.624;2023-04-01T18:57:13;13.95;;;7.05;;
52041;SDS011;38052;45.944;13.624;2023-04-01T18:59:45;13.75;;;6.57;;
52041;SDS011;38052;45.944;13.624;2023-04-01T19:05:04;9.10;;;5.35;;
52041;SDS011;38052;45.944;13.624;2023-04-01T19:20:39;11.15;;;6.85;;
52041;SDS011;38052;45.944;13.624;2023-04-01T19:28:24;12.10;;;5.65;;
52041;SDS011;38052;45.944;13.624;2023-04-01T19:33:36;16.02;;;7.93;;
52041;SDS011;38052;45.944;13.624;2023-04-01T19:38:55;13.77;;;7.68;;
52041;SDS011;38052;45.944;13.624;2023-04-01T19:43:59;11.48;;;6.82;;
52041;SDS011;38052;45.944;13.624;2023-04-01T19:46:32;8.48;;;5.30;;
52041;SDS011;38052;45.944;13.624;2023-04-01T19:49:08;7.83;;;5.73;;
52041;SDS011;38052;45.944;13.624;2023-04-01T19:56:36;9.23;;;6.32;;
52041;SDS011;38052;45.944;13.624;2023-04-01T19:59:21;14.05;;;5.38;;
52041;SDS011;38052;45.944;13.624;2023-04-01T20:02:39;8.15;;;6.05;;
52041;SDS011;38052;45.944;13.624;2023-04-01T20:04:41;10.65;;;5.68;;
52041;SDS011;38052;45.944;13.624;2023-04-01T20:12:31;11.48;;;6.30;;
52041;SDS011;38052;45.944;13.624;2023-04-01T20:14:54;14.85;;;6.15;;
52041;SDS011;38052;45.944;13.624;2023-04-01T20:17:41;11.57;;;6.38;;
52041;SDS011;38052;45.944;13.624;2023-04-01T20:25:11;8.02;;;5.43;;
52041;SDS011;38052;45.944;13.624;2023-04-01T20:27:41;11.88;;;5.30;;
52041;SDS011;38052;45.944;13.624;2023-04-01T20:49:25;10.13;;;7.13;;
52041;SDS011;38052;45.944;13.624;2023-04-01T20:57:14;11.52;;;7.22;;
52041;SDS011;38052;45.944;13.624;2023-04-01T20:59:55;14.77;;;7.00;;
52041;SDS011;38052;45.944;13.624;2023-04-01T21:02:47;13.40;;;7.28;;
52041;SDS011;38052;45.944;13.624;2023-04-01T21:12:51;14.60;;;6.28;;
52041;SDS011;38052;45.944;13.624;2023-04-01T21:30:53;17.85;;;12.05;;
52041;SDS011;38052;45.944;13.624;2023-04-01T21:38:42;14.32;;;10.75;;
52041;SDS011;38052;45.944;13.624;2023-04-01T21:49:04;18.40;;;14.10;;
52041;SDS011;38052;45.944;13.624;2023-04-01T21:51:47;18.23;;;13.10;;
52041;SDS011;38052;45.944;13.624;2023-04-01T21:56:55;18.13;;;12.85;;
52041;SDS011;38052;45.944;13.624;2023-04-01T22:05:02;15.60;;;13.13;;
52041;SDS011;38052;45.944;13.624;2023-04-01T22:07:39;21.48;;;14.20;;
52041;SDS011;38052;45.944;13.624;2023-04-01T22:10:17;20.73;;;12.70;;
52041;SDS011;38052;45.944;13.624;2023-04-01T22:17:58;17.55;;;11.90;;
52041;SDS011;38052;45.944;13.624;2023-04-01T22:25:25;16.65;;;12.00;;
52041;SDS011;38052;45.944;13.624;2023-04-01T22:28:39;19.30;;;11.25;;
52041;SDS011;38052;45.944;13.624;2023-04-01T22:30:47;17.20;;;10.88;;
52041;SDS011;38052;45.944;13.624;2023-04-01T22:38:36;14.52;;;10.52;;
52041;SDS011;38052;45.944;13.624;2023-04-01T22:41:19;15.23;;;10.00;;
52041;SDS011;38052;45.944;13.624;2023-04-01T22:43:54;19.55;;;10.88;;
52041;SDS011;38052;45.944;13.624;2023-04-01T22:49:13;16.38;;;10.18;;
52041;SDS011;38052;45.944;13.624;2023-04-01T22:54:31;14.32;;;10.38;;
52041;SDS011;38052;45.944;13.624;2023-04-01T22:57:04;19.60;;;10.55;;
52041;SDS011;38052;45.944;13.624;2023-04-01T23:01:59;16.00;;;11.07;;
52041;SDS011;38052;45.944;13.624;2023-04-01T23:04:29;18.90;;;12.15;;
52041;SDS011;38052;45.944;13.624;2023-04-01T23:06:57;16.80;;;13.50;;
52041;SDS011;38052;45.944;13.624;2023-04-01T23:09:26;19.27;;;12.82;;
52041;SDS011;38052;45.944;13.624;2023-04-01T23:19:47;19.08;;;12.88;;
52041;SDS011;38052;45.944;13.624;2023-04-01T23:24:46;20.63;;;13.70;;
52041;SDS011;38052;45.944;13.624;2023-04-01T23:27:21;17.65;;;12.85;;
52041;SDS011;38052;45.944;13.624;2023-04-01T23:29:49;19.50;;;12.85;;
52041;SDS011;38052;45.944;13.624;2023-04-01T23:32:17;27.20;;;13.93;;
52041;SDS011;38052;45.944;13.624;2023-04-01T23:34:50;17.90;;;14.32;;
52041;SDS011;38052;45.944;13.624;2023-04-01T23:37:17;20.50;;;16.27;;
52041;SDS011;38052;45.944;13.624;2023-04-01T23:39:50;23.02;;;15.88;;
52041;SDS011;38052;45.944;13.624;2023-04-01T23:42:22;21.38;;;15.38;;
52041;SDS011;38052;45.944;13.624;2023-04-01T23:44:51;19.05;;;14.02;;
52041;SDS011;38052;45.944;13.624;2023-04-01T23:47:19;23.58;;;14.45;;
52041;SDS011;38052;45.944;13.624;2023-04-01T23:50:28;21.98;;;15.00;;
52041;SDS011;38052;45.944;13.624;2023-04-01T23:52:39;19.05;;;14.25;;
52041;SDS011;38052;45.944;13.624;2023-04-01T23:57:36;19.80;;;13.80;;
